sensor_id;sensor_type;location;lat;lon;timestamp;P1;durP1;ratioP1;P2;durP2;ratioP2
32365;SDS011;18837;46.832;16.838;2023-05-23T00:01:55;6.60;;;5.40;;
32365;SDS011;18837;46.832;16.838;2023-05-23T00:04:25;6.23;;;5.67;;
32365;SDS011;18837;46.832;16.838;2023-05-23T00:06:51;6.73;;;5.87;;
32365;SDS011;18837;46.832;16.838;2023-05-23T00:09:18;6.10;;;5.60;;
32365;SDS011;18837;46.832;16.838;2023-05-23T00:11:44;5.73;;;5.23;;
32365;SDS011;18837;46.832;16.838;2023-05-23T00:14:13;6.73;;;5.73;;
32365;SDS011;18837;46.832;16.838;2023-05-23T00:16:40;6.93;;;6.00;;
32365;SDS011;18837;46.832;16.838;2023-05-23T00:19:12;6.57;;;5.93;;
32365;SDS011;18837;46.832;16.838;2023-05-23T00:21:41;6.97;;;6.20;;
32365;SDS011;18837;46.832;16.838;2023-05-23T00:24:13;6.23;;;5.73;;
32365;SDS011;18837;46.832;16.838;2023-05-23T00:26:42;6.23;;;5.63;;
32365;SDS011;18837;46.832;16.838;2023-05-23T00:29:08;5.97;;;5.47;;
32365;SDS011;18837;46.832;16.838;2023-05-23T00:31:39;6.00;;;5.50;;
32365;SDS011;18837;46.832;16.838;2023-05-23T00:34:06;6.53;;;5.83;;
32365;SDS011;18837;46.832;16.838;2023-05-23T00:36:32;6.37;;;5.57;;
32365;SDS011;18837;46.832;16.838;2023-05-23T00:39:01;6.47;;;5.77;;
32365;SDS011;18837;46.832;16.838;2023-05-23T00:41:29;6.20;;;5.70;;
32365;SDS011;18837;46.832;16.838;2023-05-23T00:43:58;5.67;;;5.17;;
32365;SDS011;18837;46.832;16.838;2023-05-23T00:46:25;6.33;;;5.73;;
32365;SDS011;18837;46.832;16.838;2023-05-23T00:48:52;6.57;;;5.97;;
32365;SDS011;18837;46.832;16.838;2023-05-23T00:51:18;6.90;;;6.20;;
32365;SDS011;18837;46.832;16.838;2023-05-23T00:53:44;6.20;;;5.17;;
32365;SDS011;18837;46.832;16.838;2023-05-23T00:56:11;6.40;;;5.80;;
32365;SDS011;18837;46.832;16.838;2023-05-23T00:58:37;5.77;;;5.17;;
32365;SDS011;18837;46.832;16.838;2023-05-23T01:01:04;7.00;;;6.00;;
32365;SDS011;18837;46.832;16.838;2023-05-23T01:03:30;5.83;;;5.33;;
32365;SDS011;18837;46.832;16.838;2023-05-23T01:05:56;6.57;;;5.97;;
32365;SDS011;18837;46.832;16.838;2023-05-23T01:08:22;6.63;;;6.07;;
32365;SDS011;18837;46.832;16.838;2023-05-23T01:10:49;5.90;;;5.40;;
32365;SDS011;18837;46.832;16.838;2023-05-23T01:13:33;5.90;;;5.33;;
32365;SDS011;18837;46.832;16.838;2023-05-23T01:16:06;6.17;;;5.50;;
32365;SDS011;18837;46.832;16.838;2023-05-23T01:18:39;6.30;;;5.73;;
32365;SDS011;18837;46.832;16.838;2023-05-23T01:28:49;6.00;;;5.50;;
32365;SDS011;18837;46.832;16.838;2023-05-23T01:31:16;6.40;;;5.80;;
32365;SDS011;18837;46.832;16.838;2023-05-23T01:33:43;5.93;;;5.33;;
32365;SDS011;18837;46.832;16.838;2023-05-23T01:36:11;5.90;;;5.40;;
32365;SDS011;18837;46.832;16.838;2023-05-23T01:38:39;6.20;;;5.60;;
32365;SDS011;18837;46.832;16.838;2023-05-23T01:41:05;6.23;;;5.30;;
32365;SDS011;18837;46.832;16.838;2023-05-23T01:43:31;5.93;;;5.33;;
32365;SDS011;18837;46.832;16.838;2023-05-23T01:45:59;6.23;;;5.63;;
32365;SDS011;18837;46.832;16.838;2023-05-23T01:48:25;6.20;;;5.60;;
32365;SDS011;18837;46.832;16.838;2023-05-23T01:50:52;6.20;;;5.60;;
32365;SDS011;18837;46.832;16.838;2023-05-23T01:53:19;5.47;;;4.93;;
32365;SDS011;18837;46.832;16.838;2023-05-23T01:55:46;5.90;;;5.40;;
32365;SDS011;18837;46.832;16.838;2023-05-23T01:58:12;7.57;;;5.67;;
32365;SDS011;18837;46.832;16.838;2023-05-23T02:00:38;6.00;;;5.50;;
32365;SDS011;18837;46.832;16.838;2023-05-23T02:03:04;6.10;;;5.37;;
32365;SDS011;18837;46.832;16.838;2023-05-23T02:05:31;6.43;;;5.57;;
32365;SDS011;18837;46.832;16.838;2023-05-23T02:07:57;6.90;;;5.70;;
32365;SDS011;18837;46.832;16.838;2023-05-23T02:10:23;5.63;;;5.13;;
32365;SDS011;18837;46.832;16.838;2023-05-23T02:12:49;5.67;;;5.17;;
32365;SDS011;18837;46.832;16.838;2023-05-23T02:15:15;6.20;;;5.70;;
32365;SDS011;18837;46.832;16.838;2023-05-23T02:17:42;7.10;;;5.03;;
32365;SDS011;18837;46.832;16.838;2023-05-23T02:20:08;5.80;;;5.30;;
32365;SDS011;18837;46.832;16.838;2023-05-23T02:22:36;7.07;;;5.37;;
32365;SDS011;18837;46.832;16.838;2023-05-23T02:25:02;5.37;;;4.87;;
32365;SDS011;18837;46.832;16.838;2023-05-23T02:27:28;5.60;;;5.10;;
32365;SDS011;18837;46.832;16.838;2023-05-23T02:29:55;5.77;;;5.27;;
32365;SDS011;18837;46.832;16.838;2023-05-23T02:32:21;5.87;;;5.27;;
32365;SDS011;18837;46.832;16.838;2023-05-23T02:34:47;6.00;;;5.33;;
32365;SDS011;18837;46.832;16.838;2023-05-23T02:37:14;5.57;;;5.07;;
32365;SDS011;18837;46.832;16.838;2023-05-23T02:39:40;5.23;;;4.83;;
32365;SDS011;18837;46.832;16.838;2023-05-23T02:42:06;5.67;;;5.17;;
32365;SDS011;18837;46.832;16.838;2023-05-23T02:44:32;5.47;;;5.03;;
32365;SDS011;18837;46.832;16.838;2023-05-23T02:46:58;5.90;;;5.30;;
32365;SDS011;18837;46.832;16.838;2023-05-23T02:49:25;5.30;;;4.90;;
32365;SDS011;18837;46.832;16.838;2023-05-23T02:51:51;6.03;;;5.53;;
32365;SDS011;18837;46.832;16.838;2023-05-23T02:54:18;5.30;;;4.80;;
32365;SDS011;18837;46.832;16.838;2023-05-23T02:56:44;5.67;;;5.17;;
32365;SDS011;18837;46.832;16.838;2023-05-23T02:59:10;5.77;;;4.83;;
32365;SDS011;18837;46.832;16.838;2023-05-23T03:01:37;5.50;;;4.97;;
32365;SDS011;18837;46.832;16.838;2023-05-23T03:04:03;6.07;;;5.53;;
32365;SDS011;18837;46.832;16.838;2023-05-23T03:06:29;5.40;;;4.90;;
32365;SDS011;18837;46.832;16.838;2023-05-23T03:08:58;5.57;;;5.17;;
32365;SDS011;18837;46.832;16.838;2023-05-23T03:11:24;5.73;;;5.23;;
32365;SDS011;18837;46.832;16.838;2023-05-23T03:13:50;5.60;;;5.07;;
32365;SDS011;18837;46.832;16.838;2023-05-23T03:16:16;5.77;;;5.27;;
32365;SDS011;18837;46.832;16.838;2023-05-23T03:18:42;5.40;;;4.90;;
32365;SDS011;18837;46.832;16.838;2023-05-23T03:21:08;5.77;;;5.27;;
32365;SDS011;18837;46.832;16.838;2023-05-23T03:23:34;5.70;;;5.03;;
32365;SDS011;18837;46.832;16.838;2023-05-23T03:26:01;5.80;;;5.30;;
32365;SDS011;18837;46.832;16.838;2023-05-23T03:28:32;5.53;;;5.03;;
32365;SDS011;18837;46.832;16.838;2023-05-23T03:30:58;5.53;;;5.07;;
32365;SDS011;18837;46.832;16.838;2023-05-23T03:33:24;5.17;;;4.77;;
32365;SDS011;18837;46.832;16.838;2023-05-23T03:35:50;5.73;;;5.23;;
32365;SDS011;18837;46.832;16.838;2023-05-23T03:38:17;5.80;;;5.30;;
32365;SDS011;18837;46.832;16.838;2023-05-23T03:40:43;5.60;;;5.00;;
32365;SDS011;18837;46.832;16.838;2023-05-23T03:43:09;6.20;;;5.10;;
32365;SDS011;18837;46.832;16.838;2023-05-23T03:45:36;5.40;;;4.90;;
32365;SDS011;18837;46.832;16.838;2023-05-23T03:48:02;5.93;;;5.43;;
32365;SDS011;18837;46.832;16.838;2023-05-23T03:50:28;6.80;;;5.47;;
32365;SDS011;18837;46.832;16.838;2023-05-23T03:52:54;6.13;;;5.07;;
32365;SDS011;18837;46.832;16.838;2023-05-23T03:55:20;6.83;;;5.50;;
32365;SDS011;18837;46.832;16.838;2023-05-23T03:57:48;5.37;;;4.87;;
32365;SDS011;18837;46.832;16.838;2023-05-23T04:00:15;5.17;;;4.77;;
32365;SDS011;18837;46.832;16.838;2023-05-23T04:02:41;5.70;;;5.20;;
32365;SDS011;18837;46.832;16.838;2023-05-23T04:05:07;6.10;;;5.53;;
32365;SDS011;18837;46.832;16.838;2023-05-23T04:07:34;6.03;;;5.03;;
32365;SDS011;18837;46.832;16.838;2023-05-23T04:10:01;5.60;;;5.10;;
32365;SDS011;18837;46.832;16.838;2023-05-23T04:12:27;5.77;;;5.27;;
32365;SDS011;18837;46.832;16.838;2023-05-23T04:14:54;5.70;;;4.90;;
32365;SDS011;18837;46.832;16.838;2023-05-23T04:17:21;6.83;;;5.57;;
32365;SDS011;18837;46.832;16.838;2023-05-23T04:19:48;5.87;;;5.27;;
32365;SDS011;18837;46.832;16.838;2023-05-23T04:22:14;6.20;;;5.53;;
32365;SDS011;18837;46.832;16.838;2023-05-23T04:24:40;5.83;;;5.30;;
32365;SDS011;18837;46.832;16.838;2023-05-23T04:27:06;5.87;;;5.27;;
32365;SDS011;18837;46.832;16.838;2023-05-23T04:29:33;5.80;;;5.30;;
32365;SDS011;18837;46.832;16.838;2023-05-23T04:32:00;5.50;;;4.90;;
32365;SDS011;18837;46.832;16.838;2023-05-23T04:34:26;5.30;;;4.90;;
32365;SDS011;18837;46.832;16.838;2023-05-23T04:36:54;5.77;;;5.27;;
32365;SDS011;18837;46.832;16.838;2023-05-23T04:39:20;6.10;;;5.50;;
32365;SDS011;18837;46.832;16.838;2023-05-23T04:41:49;6.23;;;5.73;;
32365;SDS011;18837;46.832;16.838;2023-05-23T04:44:15;5.90;;;5.30;;
32365;SDS011;18837;46.832;16.838;2023-05-23T04:46:42;5.60;;;5.10;;
32365;SDS011;18837;46.832;16.838;2023-05-23T04:49:09;5.60;;;5.10;;
32365;SDS011;18837;46.832;16.838;2023-05-23T04:51:36;5.87;;;5.27;;
32365;SDS011;18837;46.832;16.838;2023-05-23T04:54:03;7.13;;;5.37;;
32365;SDS011;18837;46.832;16.838;2023-05-23T04:56:29;5.60;;;5.10;;
32365;SDS011;18837;46.832;16.838;2023-05-23T04:58:55;6.10;;;5.53;;
32365;SDS011;18837;46.832;16.838;2023-05-23T05:01:21;5.83;;;5.33;;
32365;SDS011;18837;46.832;16.838;2023-05-23T05:03:50;7.27;;;5.60;;
32365;SDS011;18837;46.832;16.838;2023-05-23T05:06:17;6.70;;;5.40;;
32365;SDS011;18837;46.832;16.838;2023-05-23T05:08:45;7.20;;;6.53;;
32365;SDS011;18837;46.832;16.838;2023-05-23T05:11:11;6.17;;;5.57;;
32365;SDS011;18837;46.832;16.838;2023-05-23T05:13:37;5.40;;;4.90;;
32365;SDS011;18837;46.832;16.838;2023-05-23T05:16:03;5.43;;;4.93;;
32365;SDS011;18837;46.832;16.838;2023-05-23T05:18:29;5.17;;;4.70;;
32365;SDS011;18837;46.832;16.838;2023-05-23T05:20:55;5.70;;;5.10;;
32365;SDS011;18837;46.832;16.838;2023-05-23T05:23:23;6.23;;;5.63;;
32365;SDS011;18837;46.832;16.838;2023-05-23T05:25:49;5.70;;;5.20;;
32365;SDS011;18837;46.832;16.838;2023-05-23T05:28:15;6.00;;;5.50;;
32365;SDS011;18837;46.832;16.838;2023-05-23T05:30:43;6.30;;;5.70;;
32365;SDS011;18837;46.832;16.838;2023-05-23T05:33:10;5.70;;;5.20;;
32365;SDS011;18837;46.832;16.838;2023-05-23T05:35:36;5.80;;;5.20;;
32365;SDS011;18837;46.832;16.838;2023-05-23T05:38:02;5.47;;;4.97;;
32365;SDS011;18837;46.832;16.838;2023-05-23T05:40:31;5.57;;;5.07;;
32365;SDS011;18837;46.832;16.838;2023-05-23T05:42:57;5.73;;;5.07;;
32365;SDS011;18837;46.832;16.838;2023-05-23T05:45:24;6.03;;;5.40;;
32365;SDS011;18837;46.832;16.838;2023-05-23T05:47:50;7.00;;;5.43;;
32365;SDS011;18837;46.832;16.838;2023-05-23T05:50:16;5.83;;;5.33;;
32365;SDS011;18837;46.832;16.838;2023-05-23T05:52:43;5.83;;;5.23;;
32365;SDS011;18837;46.832;16.838;2023-05-23T05:55:09;6.27;;;5.67;;
32365;SDS011;18837;46.832;16.838;2023-05-23T05:57:36;5.77;;;5.27;;
32365;SDS011;18837;46.832;16.838;2023-05-23T06:00:06;5.60;;;5.10;;
32365;SDS011;18837;46.832;16.838;2023-05-23T06:02:37;5.93;;;5.30;;
32365;SDS011;18837;46.832;16.838;2023-05-23T06:05:04;5.67;;;5.00;;
32365;SDS011;18837;46.832;16.838;2023-05-23T06:07:32;6.33;;;5.53;;
32365;SDS011;18837;46.832;16.838;2023-05-23T06:09:58;5.95;;;5.40;;
32365;SDS011;18837;46.832;16.838;2023-05-23T06:12:25;7.27;;;5.37;;
32365;SDS011;18837;46.832;16.838;2023-05-23T06:14:51;6.30;;;5.70;;
32365;SDS011;18837;46.832;16.838;2023-05-23T06:17:17;6.70;;;6.10;;
32365;SDS011;18837;46.832;16.838;2023-05-23T06:19:43;7.80;;;6.43;;
32365;SDS011;18837;46.832;16.838;2023-05-23T06:22:09;5.73;;;5.13;;
32365;SDS011;18837;46.832;16.838;2023-05-23T06:24:37;6.10;;;5.60;;
32365;SDS011;18837;46.832;16.838;2023-05-23T06:27:03;6.40;;;5.80;;
32365;SDS011;18837;46.832;16.838;2023-05-23T06:29:29;7.13;;;5.70;;
32365;SDS011;18837;46.832;16.838;2023-05-23T06:31:55;6.77;;;5.60;;
32365;SDS011;18837;46.832;16.838;2023-05-23T06:34:21;6.00;;;5.40;;
32365;SDS011;18837;46.832;16.838;2023-05-23T06:36:47;6.57;;;5.87;;
32365;SDS011;18837;46.832;16.838;2023-05-23T06:39:14;6.50;;;5.90;;
32365;SDS011;18837;46.832;16.838;2023-05-23T06:41:40;8.37;;;5.90;;
32365;SDS011;18837;46.832;16.838;2023-05-23T06:44:08;5.90;;;5.40;;
32365;SDS011;18837;46.832;16.838;2023-05-23T06:46:34;6.70;;;6.00;;
32365;SDS011;18837;46.832;16.838;2023-05-23T06:49:00;6.60;;;5.80;;
32365;SDS011;18837;46.832;16.838;2023-05-23T06:51:26;6.63;;;6.03;;
32365;SDS011;18837;46.832;16.838;2023-05-23T06:53:53;7.40;;;6.70;;
32365;SDS011;18837;46.832;16.838;2023-05-23T06:56:21;7.50;;;6.30;;
32365;SDS011;18837;46.832;16.838;2023-05-23T06:58:48;7.17;;;6.20;;
32365;SDS011;18837;46.832;16.838;2023-05-23T07:01:14;6.80;;;6.20;;
32365;SDS011;18837;46.832;16.838;2023-05-23T07:03:40;6.27;;;5.77;;
32365;SDS011;18837;46.832;16.838;2023-05-23T07:06:09;7.17;;;6.47;;
32365;SDS011;18837;46.832;16.838;2023-05-23T07:08:35;7.00;;;5.80;;
32365;SDS011;18837;46.832;16.838;2023-05-23T07:11:01;6.80;;;6.23;;
32365;SDS011;18837;46.832;16.838;2023-05-23T07:13:27;6.87;;;6.17;;
32365;SDS011;18837;46.832;16.838;2023-05-23T07:15:54;6.60;;;6.00;;
32365;SDS011;18837;46.832;16.838;2023-05-23T07:18:20;6.70;;;6.07;;
32365;SDS011;18837;46.832;16.838;2023-05-23T07:20:46;6.70;;;6.10;;
32365;SDS011;18837;46.832;16.838;2023-05-23T07:23:12;6.93;;;6.23;;
32365;SDS011;18837;46.832;16.838;2023-05-23T07:25:38;7.47;;;6.43;;
32365;SDS011;18837;46.832;16.838;2023-05-23T07:28:06;7.37;;;6.73;;
32365;SDS011;18837;46.832;16.838;2023-05-23T07:30:32;6.83;;;6.13;;
32365;SDS011;18837;46.832;16.838;2023-05-23T07:32:58;6.50;;;5.80;;
32365;SDS011;18837;46.832;16.838;2023-05-23T07:35:25;7.00;;;6.30;;
32365;SDS011;18837;46.832;16.838;2023-05-23T07:37:52;6.90;;;6.30;;
32365;SDS011;18837;46.832;16.838;2023-05-23T07:40:18;6.70;;;6.10;;
32365;SDS011;18837;46.832;16.838;2023-05-23T07:42:44;6.77;;;6.13;;
32365;SDS011;18837;46.832;16.838;2023-05-23T07:45:10;6.43;;;5.90;;
32365;SDS011;18837;46.832;16.838;2023-05-23T07:47:37;7.10;;;6.40;;
32365;SDS011;18837;46.832;16.838;2023-05-23T07:50:03;6.67;;;5.60;;
32365;SDS011;18837;46.832;16.838;2023-05-23T07:52:29;5.70;;;5.20;;
32365;SDS011;18837;46.832;16.838;2023-05-23T07:54:56;6.70;;;6.10;;
32365;SDS011;18837;46.832;16.838;2023-05-23T07:57:22;6.23;;;5.63;;
32365;SDS011;18837;46.832;16.838;2023-05-23T07:59:51;8.60;;;5.80;;
32365;SDS011;18837;46.832;16.838;2023-05-23T08:02:18;7.00;;;6.30;;
32365;SDS011;18837;46.832;16.838;2023-05-23T08:04:46;6.67;;;6.07;;
32365;SDS011;18837;46.832;16.838;2023-05-23T08:07:12;7.70;;;6.80;;
32365;SDS011;18837;46.832;16.838;2023-05-23T08:09:38;7.67;;;6.70;;
32365;SDS011;18837;46.832;16.838;2023-05-23T08:12:05;7.60;;;6.90;;
32365;SDS011;18837;46.832;16.838;2023-05-23T08:14:31;7.53;;;6.83;;
32365;SDS011;18837;46.832;16.838;2023-05-23T08:16:57;7.23;;;6.53;;
32365;SDS011;18837;46.832;16.838;2023-05-23T08:19:23;7.20;;;6.60;;
32365;SDS011;18837;46.832;16.838;2023-05-23T08:21:49;7.03;;;6.33;;
32365;SDS011;18837;46.832;16.838;2023-05-23T08:24:17;7.23;;;6.47;;
32365;SDS011;18837;46.832;16.838;2023-05-23T08:26:44;7.23;;;6.53;;
32365;SDS011;18837;46.832;16.838;2023-05-23T08:29:10;7.50;;;6.80;;
32365;SDS011;18837;46.832;16.838;2023-05-23T08:31:36;7.17;;;6.57;;
32365;SDS011;18837;46.832;16.838;2023-05-23T08:34:02;7.17;;;6.47;;
32365;SDS011;18837;46.832;16.838;2023-05-23T08:36:28;7.97;;;7.13;;
32365;SDS011;18837;46.832;16.838;2023-05-23T08:38:58;7.47;;;6.77;;
32365;SDS011;18837;46.832;16.838;2023-05-23T08:41:24;7.30;;;6.60;;
32365;SDS011;18837;46.832;16.838;2023-05-23T08:43:53;7.20;;;6.60;;
32365;SDS011;18837;46.832;16.838;2023-05-23T08:46:19;7.00;;;6.07;;
32365;SDS011;18837;46.832;16.838;2023-05-23T08:48:51;7.33;;;6.60;;
32365;SDS011;18837;46.832;16.838;2023-05-23T08:51:18;7.20;;;6.00;;
32365;SDS011;18837;46.832;16.838;2023-05-23T08:53:46;7.37;;;6.67;;
32365;SDS011;18837;46.832;16.838;2023-05-23T08:56:12;6.70;;;6.10;;
32365;SDS011;18837;46.832;16.838;2023-05-23T08:58:39;7.60;;;6.40;;
32365;SDS011;18837;46.832;16.838;2023-05-23T09:01:09;8.43;;;6.50;;
32365;SDS011;18837;46.832;16.838;2023-05-23T09:03:35;7.80;;;7.10;;
32365;SDS011;18837;46.832;16.838;2023-05-23T09:06:02;7.67;;;6.97;;
32365;SDS011;18837;46.832;16.838;2023-05-23T09:08:29;7.43;;;6.77;;
32365;SDS011;18837;46.832;16.838;2023-05-23T09:10:55;7.17;;;6.57;;
32365;SDS011;18837;46.832;16.838;2023-05-23T09:16:10;6.80;;;6.30;;
32365;SDS011;18837;46.832;16.838;2023-05-23T09:18:39;6.87;;;6.27;;
32365;SDS011;18837;46.832;16.838;2023-05-23T09:21:06;7.17;;;6.43;;
32365;SDS011;18837;46.832;16.838;2023-05-23T09:23:33;7.10;;;6.50;;
32365;SDS011;18837;46.832;16.838;2023-05-23T09:26:03;8.00;;;7.20;;
32365;SDS011;18837;46.832;16.838;2023-05-23T09:28:30;7.33;;;6.60;;
32365;SDS011;18837;46.832;16.838;2023-05-23T09:30:56;7.40;;;6.70;;
32365;SDS011;18837;46.832;16.838;2023-05-23T09:33:27;6.70;;;6.10;;
32365;SDS011;18837;46.832;16.838;2023-05-23T09:35:53;7.53;;;6.50;;
32365;SDS011;18837;46.832;16.838;2023-05-23T09:38:20;6.73;;;6.00;;
32365;SDS011;18837;46.832;16.838;2023-05-23T09:40:46;6.80;;;6.20;;
32365;SDS011;18837;46.832;16.838;2023-05-23T09:43:12;8.10;;;7.30;;
32365;SDS011;18837;46.832;16.838;2023-05-23T09:45:43;7.37;;;6.43;;
32365;SDS011;18837;46.832;16.838;2023-05-23T09:48:12;7.97;;;7.23;;
32365;SDS011;18837;46.832;16.838;2023-05-23T09:50:38;7.57;;;6.87;;
32365;SDS011;18837;46.832;16.838;2023-05-23T09:53:04;7.20;;;6.60;;
32365;SDS011;18837;46.832;16.838;2023-05-23T09:55:31;7.13;;;6.53;;
32365;SDS011;18837;46.832;16.838;2023-05-23T09:57:57;7.07;;;6.47;;
32365;SDS011;18837;46.832;16.838;2023-05-23T10:00:24;6.80;;;6.20;;
32365;SDS011;18837;46.832;16.838;2023-05-23T10:08:06;6.43;;;5.80;;
32365;SDS011;18837;46.832;16.838;2023-05-23T10:10:33;6.97;;;6.37;;
32365;SDS011;18837;46.832;16.838;2023-05-23T10:13:03;6.77;;;6.17;;
32365;SDS011;18837;46.832;16.838;2023-05-23T10:15:34;6.93;;;6.33;;
32365;SDS011;18837;46.832;16.838;2023-05-23T10:18:02;7.80;;;6.07;;
32365;SDS011;18837;46.832;16.838;2023-05-23T10:20:32;6.47;;;5.97;;
32365;SDS011;18837;46.832;16.838;2023-05-23T10:23:01;6.70;;;6.03;;
32365;SDS011;18837;46.832;16.838;2023-05-23T10:25:29;6.50;;;5.90;;
32365;SDS011;18837;46.832;16.838;2023-05-23T10:27:56;6.23;;;5.63;;
32365;SDS011;18837;46.832;16.838;2023-05-23T10:30:23;6.37;;;5.87;;
32365;SDS011;18837;46.832;16.838;2023-05-23T10:32:49;6.07;;;5.57;;
32365;SDS011;18837;46.832;16.838;2023-05-23T10:36:03;8.23;;;6.20;;
32365;SDS011;18837;46.832;16.838;2023-05-23T10:45:58;5.97;;;4.73;;
32365;SDS011;18837;46.832;16.838;2023-05-23T10:51:06;5.93;;;5.33;;
32365;SDS011;18837;46.832;16.838;2023-05-23T10:53:39;5.37;;;4.87;;
32365;SDS011;18837;46.832;16.838;2023-05-23T10:56:06;5.07;;;4.57;;
32365;SDS011;18837;46.832;16.838;2023-05-23T10:58:38;5.40;;;4.90;;
32365;SDS011;18837;46.832;16.838;2023-05-23T11:01:08;5.27;;;4.77;;
32365;SDS011;18837;46.832;16.838;2023-05-23T11:09:03;6.33;;;4.90;;
32365;SDS011;18837;46.832;16.838;2023-05-23T11:14:14;5.70;;;5.10;;
32365;SDS011;18837;46.832;16.838;2023-05-23T11:16:41;6.30;;;5.00;;
32365;SDS011;18837;46.832;16.838;2023-05-23T11:21:58;5.13;;;4.63;;
32365;SDS011;18837;46.832;16.838;2023-05-23T11:25:07;5.17;;;3.83;;
32365;SDS011;18837;46.832;16.838;2023-05-23T11:27:24;4.47;;;4.07;;
32365;SDS011;18837;46.832;16.838;2023-05-23T11:29:57;4.43;;;4.03;;
32365;SDS011;18837;46.832;16.838;2023-05-23T11:32:24;5.33;;;4.60;;
32365;SDS011;18837;46.832;16.838;2023-05-23T11:34:52;5.23;;;4.50;;
32365;SDS011;18837;46.832;16.838;2023-05-23T11:37:18;5.10;;;4.60;;
32365;SDS011;18837;46.832;16.838;2023-05-23T11:39:44;4.87;;;4.47;;
32365;SDS011;18837;46.832;16.838;2023-05-23T11:42:11;5.50;;;4.53;;
32365;SDS011;18837;46.832;16.838;2023-05-23T11:44:37;4.97;;;4.57;;
32365;SDS011;18837;46.832;16.838;2023-05-23T11:47:03;4.80;;;4.33;;
32365;SDS011;18837;46.832;16.838;2023-05-23T11:49:31;7.73;;;4.90;;
32365;SDS011;18837;46.832;16.838;2023-05-23T11:51:57;5.03;;;4.63;;
32365;SDS011;18837;46.832;16.838;2023-05-23T11:54:26;5.37;;;4.93;;
32365;SDS011;18837;46.832;16.838;2023-05-23T11:56:53;6.00;;;5.10;;
32365;SDS011;18837;46.832;16.838;2023-05-23T11:59:20;5.37;;;4.70;;
32365;SDS011;18837;46.832;16.838;2023-05-23T12:01:46;5.47;;;4.90;;
32365;SDS011;18837;46.832;16.838;2023-05-23T12:04:12;5.33;;;4.80;;
32365;SDS011;18837;46.832;16.838;2023-05-23T12:06:39;5.20;;;4.70;;
32365;SDS011;18837;46.832;16.838;2023-05-23T12:09:06;4.80;;;4.30;;
32365;SDS011;18837;46.832;16.838;2023-05-23T12:11:33;4.97;;;4.43;;
32365;SDS011;18837;46.832;16.838;2023-05-23T12:13:59;4.00;;;3.70;;
32365;SDS011;18837;46.832;16.838;2023-05-23T12:16:30;4.43;;;4.03;;
32365;SDS011;18837;46.832;16.838;2023-05-23T12:18:56;4.83;;;4.30;;
32365;SDS011;18837;46.832;16.838;2023-05-23T12:21:26;4.33;;;3.93;;
32365;SDS011;18837;46.832;16.838;2023-05-23T12:24:14;4.23;;;3.83;;
32365;SDS011;18837;46.832;16.838;2023-05-23T12:29:12;4.57;;;4.17;;
32365;SDS011;18837;46.832;16.838;2023-05-23T12:31:38;5.03;;;4.13;;
32365;SDS011;18837;46.832;16.838;2023-05-23T12:34:05;4.20;;;3.80;;
32365;SDS011;18837;46.832;16.838;2023-05-23T12:36:31;4.53;;;4.13;;
32365;SDS011;18837;46.832;16.838;2023-05-23T12:39:02;4.33;;;3.93;;
32365;SDS011;18837;46.832;16.838;2023-05-23T12:41:28;4.57;;;4.17;;
32365;SDS011;18837;46.832;16.838;2023-05-23T12:43:55;4.73;;;3.80;;
32365;SDS011;18837;46.832;16.838;2023-05-23T12:46:22;4.70;;;4.30;;
32365;SDS011;18837;46.832;16.838;2023-05-23T12:48:48;5.37;;;4.50;;
32365;SDS011;18837;46.832;16.838;2023-05-23T12:51:14;4.87;;;4.43;;
32365;SDS011;18837;46.832;16.838;2023-05-23T12:53:41;4.57;;;4.20;;
32365;SDS011;18837;46.832;16.838;2023-05-23T12:56:07;4.57;;;4.17;;
32365;SDS011;18837;46.832;16.838;2023-05-23T12:58:33;4.60;;;4.20;;
32365;SDS011;18837;46.832;16.838;2023-05-23T13:00:59;4.70;;;4.27;;
32365;SDS011;18837;46.832;16.838;2023-05-23T13:03:26;4.60;;;4.00;;
32365;SDS011;18837;46.832;16.838;2023-05-23T13:05:55;4.57;;;4.17;;
32365;SDS011;18837;46.832;16.838;2023-05-23T13:08:21;3.87;;;3.57;;
32365;SDS011;18837;46.832;16.838;2023-05-23T13:10:48;4.53;;;4.13;;
32365;SDS011;18837;46.832;16.838;2023-05-23T13:13:15;5.00;;;4.30;;
32365;SDS011;18837;46.832;16.838;2023-05-23T13:15:41;4.50;;;4.10;;
32365;SDS011;18837;46.832;16.838;2023-05-23T13:18:07;4.27;;;3.90;;
32365;SDS011;18837;46.832;16.838;2023-05-23T13:20:35;4.93;;;4.43;;
32365;SDS011;18837;46.832;16.838;2023-05-23T13:23:03;4.60;;;4.13;;
32365;SDS011;18837;46.832;16.838;2023-05-23T13:25:49;5.60;;;4.17;;
32365;SDS011;18837;46.832;16.838;2023-05-23T13:30:41;4.90;;;4.50;;
32365;SDS011;18837;46.832;16.838;2023-05-23T13:33:07;4.60;;;4.17;;
32365;SDS011;18837;46.832;16.838;2023-05-23T13:35:34;4.93;;;3.90;;
32365;SDS011;18837;46.832;16.838;2023-05-23T13:38:00;5.07;;;3.90;;
32365;SDS011;18837;46.832;16.838;2023-05-23T13:40:26;4.47;;;4.07;;
32365;SDS011;18837;46.832;16.838;2023-05-23T13:42:52;4.47;;;4.07;;
32365;SDS011;18837;46.832;16.838;2023-05-23T13:45:21;4.50;;;4.10;;
32365;SDS011;18837;46.832;16.838;2023-05-23T13:47:47;4.63;;;4.23;;
32365;SDS011;18837;46.832;16.838;2023-05-23T13:50:13;4.80;;;4.40;;
32365;SDS011;18837;46.832;16.838;2023-05-23T13:52:40;4.60;;;4.20;;
32365;SDS011;18837;46.832;16.838;2023-05-23T13:55:06;4.50;;;4.10;;
32365;SDS011;18837;46.832;16.838;2023-05-23T13:57:32;4.53;;;4.10;;
32365;SDS011;18837;46.832;16.838;2023-05-23T13:59:58;5.07;;;4.50;;
32365;SDS011;18837;46.832;16.838;2023-05-23T14:55:23;4.93;;;4.53;;
32365;SDS011;18837;46.832;16.838;2023-05-23T14:57:50;5.70;;;4.90;;
32365;SDS011;18837;46.832;16.838;2023-05-23T15:00:16;4.83;;;4.33;;
32365;SDS011;18837;46.832;16.838;2023-05-23T15:02:43;4.93;;;4.53;;
32365;SDS011;18837;46.832;16.838;2023-05-23T15:05:11;5.23;;;4.73;;
32365;SDS011;18837;46.832;16.838;2023-05-23T15:07:37;4.97;;;4.57;;
32365;SDS011;18837;46.832;16.838;2023-05-23T15:10:03;5.40;;;4.90;;
32365;SDS011;18837;46.832;16.838;2023-05-23T15:12:30;4.60;;;4.20;;
32365;SDS011;18837;46.832;16.838;2023-05-23T15:14:56;4.63;;;4.23;;
32365;SDS011;18837;46.832;16.838;2023-05-23T15:17:28;5.23;;;4.60;;
32365;SDS011;18837;46.832;16.838;2023-05-23T15:19:55;5.30;;;4.77;;
32365;SDS011;18837;46.832;16.838;2023-05-23T15:22:25;5.53;;;4.40;;
32365;SDS011;18837;46.832;16.838;2023-05-23T15:24:52;5.00;;;4.50;;
32365;SDS011;18837;46.832;16.838;2023-05-23T15:27:18;4.60;;;4.20;;
32365;SDS011;18837;46.832;16.838;2023-05-23T15:29:46;5.10;;;4.70;;
32365;SDS011;18837;46.832;16.838;2023-05-23T15:32:12;5.30;;;4.80;;
32365;SDS011;18837;46.832;16.838;2023-05-23T15:34:38;5.40;;;4.90;;
32365;SDS011;18837;46.832;16.838;2023-05-23T15:37:04;5.47;;;4.40;;
32365;SDS011;18837;46.832;16.838;2023-05-23T15:39:33;5.43;;;4.57;;
32365;SDS011;18837;46.832;16.838;2023-05-23T15:42:00;5.27;;;4.73;;
32365;SDS011;18837;46.832;16.838;2023-05-23T15:44:26;6.27;;;4.73;;
32365;SDS011;18837;46.832;16.838;2023-05-23T15:46:52;6.10;;;4.37;;
32365;SDS011;18837;46.832;16.838;2023-05-23T15:49:18;5.10;;;4.60;;
32365;SDS011;18837;46.832;16.838;2023-05-23T15:51:44;11.57;;;10.47;;
32365;SDS011;18837;46.832;16.838;2023-05-23T15:59:48;14.17;;;12.77;;
32365;SDS011;18837;46.832;16.838;2023-05-23T16:02:14;10.27;;;9.17;;
32365;SDS011;18837;46.832;16.838;2023-05-23T16:04:45;8.57;;;7.00;;
32365;SDS011;18837;46.832;16.838;2023-05-23T16:07:11;9.47;;;8.03;;
32365;SDS011;18837;46.832;16.838;2023-05-23T16:09:37;10.13;;;9.17;;
32365;SDS011;18837;46.832;16.838;2023-05-23T16:12:03;10.70;;;9.60;;
32365;SDS011;18837;46.832;16.838;2023-05-23T16:14:35;9.57;;;8.50;;